Blue Bossa — WDJ6873 — position and weather

sailwx.info

Track history (hours):
 
Tides and Currents Weather Stations Pressure Air Temp Water Temp Dewpoint Dewpoint Depression Visibility Wind Speed Wind Dir Waves Ship Positions

Blue Bossa

Owner: Callan, Daniel P, Seattle, WA. More information available from US FCC via Universal Licensing System.

Last reported at 2017-Sep-24 01:01 UTC. Time now 2017-Oct-17 12:59 UTC.
Position N 48°31' W 122°39'.
Warning: this ship's position is 23 days out of date.

Length 12 m.

Type: Sailing vessel. MMSI: 368001060.

Date/timePositionNaut miles runAvg speedWind from/ knotsBaromVisibWave heightAir tempDewpointWater temp
2017-Sep-24 01:01N 48°31' W 122°39'1 7.9
2017-Sep-24 00:53N 48°32' W 122°40'2 5.0
2017-Sep-24 00:27N 48°32' W 122°43'0 0.1
2017-Sep-24 00:00N 48°32' W 122°43'0 0.7
2017-Sep-23 23:30N 48°32' W 122°44'3 5.4
2017-Sep-23 22:55N 48°36' W 122°45'2 5.0
2017-Sep-23 22:28N 48°38' W 122°44'1 2.3
2017-Sep-23 21:56N 48°39' W 122°44'0 0.8
2017-Sep-23 21:30N 48°39' W 122°44'  
2017-Sep-16 00:41N 48°31' W 122°36'2 5.1
2017-Sep-16 00:20N 48°31' W 122°39'3 6.2
2017-Sep-15 23:54N 48°32' W 122°43'3 7.8
2017-Sep-15 23:28N 48°34' W 122°47'3 5.8
2017-Sep-15 23:00N 48°36' W 122°50'1 0.5
2017-Sep-15 19:50N 48°37' W 122°50'1 3.9
2017-Sep-15 19:30N 48°36' W 122°49'3 5.2
2017-Sep-15 19:00N 48°37' W 122°45'4 0.2
2017-Sep-14 23:19N 48°35' W 122°41'2 6.8
2017-Sep-14 22:58N 48°37' W 122°42'12 5.3
2017-Sep-14 20:42N 48°45' W 122°56'1 5.8
2017-Sep-14 20:27N 48°45' W 122°58'7 6.6
2017-Sep-14 19:26N 48°45' W 123°09'5 8.2
2017-Sep-14 18:51N 48°48' W 123°15'3 8.8
2017-Sep-14 18:30N 48°50' W 123°19'3 5.5
2017-Sep-14 17:58N 48°49' W 123°23'2 5.4
2017-Sep-14 17:30N 48°50' W 123°26'3 0.2
2017-Sep-14 01:58N 48°51' W 123°30'0 0.0
2017-Sep-14 01:25N 48°51' W 123°30'  
Track history (hours):
 
Tides and Currents Weather Stations Pressure Air Temp Water Temp Dewpoint Dewpoint Depression Visibility Wind Speed Wind Dir Waves Ship Positions

Blue Bossa

Owner: Callan, Daniel P, Seattle, WA. More information available from US FCC via Universal Licensing System.

Last reported at 2017-Sep-24 01:01 UTC. Time now 2017-Oct-17 12:59 UTC.
Position N 48°31' W 122°39'.
Warning: this ship's position is 23 days out of date.

Length 12 m.

Type: Sailing vessel. MMSI: 368001060.

Date/timePositionNaut miles runAvg speedWind from/ knotsBaromVisibWave heightAir tempDewpointWater temp
2017-Sep-24 01:01N 48°31' W 122°39'1 7.9
2017-Sep-24 00:53N 48°32' W 122°40'2 5.0
2017-Sep-24 00:27N 48°32' W 122°43'0 0.1
2017-Sep-24 00:00N 48°32' W 122°43'0 0.7
2017-Sep-23 23:30N 48°32' W 122°44'3 5.4
2017-Sep-23 22:55N 48°36' W 122°45'2 5.0
2017-Sep-23 22:28N 48°38' W 122°44'1 2.3
2017-Sep-23 21:56N 48°39' W 122°44'0 0.8
2017-Sep-23 21:30N 48°39' W 122°44'  
2017-Sep-16 00:41N 48°31' W 122°36'2 5.1
2017-Sep-16 00:20N 48°31' W 122°39'3 6.2
2017-Sep-15 23:54N 48°32' W 122°43'3 7.8
2017-Sep-15 23:28N 48°34' W 122°47'3 5.8
2017-Sep-15 23:00N 48°36' W 122°50'1 0.5
2017-Sep-15 19:50N 48°37' W 122°50'1 3.9
2017-Sep-15 19:30N 48°36' W 122°49'3 5.2
2017-Sep-15 19:00N 48°37' W 122°45'4 0.2
2017-Sep-14 23:19N 48°35' W 122°41'2 6.8
2017-Sep-14 22:58N 48°37' W 122°42'12 5.3
2017-Sep-14 20:42N 48°45' W 122°56'1 5.8
2017-Sep-14 20:27N 48°45' W 122°58'7 6.6
2017-Sep-14 19:26N 48°45' W 123°09'5 8.2
2017-Sep-14 18:51N 48°48' W 123°15'3 8.8
2017-Sep-14 18:30N 48°50' W 123°19'3 5.5
2017-Sep-14 17:58N 48°49' W 123°23'2 5.4
2017-Sep-14 17:30N 48°50' W 123°26'3 0.2
2017-Sep-14 01:58N 48°51' W 123°30'0 0.0
2017-Sep-14 01:25N 48°51' W 123°30'  

Dump ship's entire track history